sensor_id;sensor_type;location;lat;lon;timestamp;P1;durP1;ratioP1;P2;durP2;ratioP2
21639;SDS011;10981;45.462;10.974;2023-02-02T00:01:50;143.07;;;77.72;;
21639;SDS011;10981;45.462;10.974;2023-02-02T00:04:24;154.25;;;80.07;;
21639;SDS011;10981;45.462;10.974;2023-02-02T00:06:55;158.35;;;79.72;;
21639;SDS011;10981;45.462;10.974;2023-02-02T00:09:25;147.95;;;78.72;;
21639;SDS011;10981;45.462;10.974;2023-02-02T00:11:55;149.10;;;78.88;;
21639;SDS011;10981;45.462;10.974;2023-02-02T00:14:24;156.85;;;76.82;;
21639;SDS011;10981;45.462;10.974;2023-02-02T00:16:53;147.77;;;78.63;;
21639;SDS011;10981;45.462;10.974;2023-02-02T00:19:24;152.00;;;76.03;;
21639;SDS011;10981;45.462;10.974;2023-02-02T00:21:53;146.57;;;78.10;;
21639;SDS011;10981;45.462;10.974;2023-02-02T00:24:22;146.57;;;75.95;;
21639;SDS011;10981;45.462;10.974;2023-02-02T00:26:51;145.63;;;78.00;;
21639;SDS011;10981;45.462;10.974;2023-02-02T00:29:28;157.13;;;80.18;;
21639;SDS011;10981;45.462;10.974;2023-02-02T00:31:57;150.68;;;81.50;;
21639;SDS011;10981;45.462;10.974;2023-02-02T00:34:25;154.57;;;82.40;;
21639;SDS011;10981;45.462;10.974;2023-02-02T00:36:54;145.65;;;77.65;;
21639;SDS011;10981;45.462;10.974;2023-02-02T00:39:22;151.50;;;79.30;;
21639;SDS011;10981;45.462;10.974;2023-02-02T00:41:55;145.85;;;78.18;;
21639;SDS011;10981;45.462;10.974;2023-02-02T00:44:23;147.75;;;76.88;;
21639;SDS011;10981;45.462;10.974;2023-02-02T00:47:10;157.95;;;80.43;;
21639;SDS011;10981;45.462;10.974;2023-02-02T00:49:39;140.85;;;75.00;;
21639;SDS011;10981;45.462;10.974;2023-02-02T00:52:08;143.68;;;75.07;;
21639;SDS011;10981;45.462;10.974;2023-02-02T00:54:37;139.77;;;71.78;;
21639;SDS011;10981;45.462;10.974;2023-02-02T00:57:05;148.90;;;74.88;;
21639;SDS011;10981;45.462;10.974;2023-02-02T00:59:33;147.43;;;76.30;;
21639;SDS011;10981;45.462;10.974;2023-02-02T01:02:03;141.32;;;75.20;;
21639;SDS011;10981;45.462;10.974;2023-02-02T01:04:31;148.02;;;75.97;;
21639;SDS011;10981;45.462;10.974;2023-02-02T01:07:00;162.68;;;79.03;;
21639;SDS011;10981;45.462;10.974;2023-02-02T01:09:29;136.35;;;77.10;;
21639;SDS011;10981;45.462;10.974;2023-02-02T01:11:57;142.63;;;76.25;;
21639;SDS011;10981;45.462;10.974;2023-02-02T01:14:25;140.98;;;73.60;;
21639;SDS011;10981;45.462;10.974;2023-02-02T01:16:55;151.90;;;79.47;;
21639;SDS011;10981;45.462;10.974;2023-02-02T01:19:24;143.30;;;76.38;;
21639;SDS011;10981;45.462;10.974;2023-02-02T01:21:52;157.50;;;79.85;;
21639;SDS011;10981;45.462;10.974;2023-02-02T01:24:21;155.85;;;80.07;;
21639;SDS011;10981;45.462;10.974;2023-02-02T01:26:51;158.05;;;81.88;;
21639;SDS011;10981;45.462;10.974;2023-02-02T01:29:19;157.27;;;82.85;;
21639;SDS011;10981;45.462;10.974;2023-02-02T01:31:47;157.43;;;79.50;;
21639;SDS011;10981;45.462;10.974;2023-02-02T01:34:16;150.55;;;80.28;;
21639;SDS011;10981;45.462;10.974;2023-02-02T01:36:44;157.75;;;84.85;;
21639;SDS011;10981;45.462;10.974;2023-02-02T01:39:12;150.63;;;79.65;;
21639;SDS011;10981;45.462;10.974;2023-02-02T01:41:41;153.18;;;78.20;;
21639;SDS011;10981;45.462;10.974;2023-02-02T01:47:15;161.63;;;83.72;;
21639;SDS011;10981;45.462;10.974;2023-02-02T01:49:45;148.65;;;77.43;;
21639;SDS011;10981;45.462;10.974;2023-02-02T01:52:14;145.88;;;77.60;;
21639;SDS011;10981;45.462;10.974;2023-02-02T01:54:48;154.02;;;81.47;;
21639;SDS011;10981;45.462;10.974;2023-02-02T01:57:35;152.95;;;79.03;;
21639;SDS011;10981;45.462;10.974;2023-02-02T02:00:08;155.73;;;81.32;;
21639;SDS011;10981;45.462;10.974;2023-02-02T02:02:40;148.37;;;79.97;;
21639;SDS011;10981;45.462;10.974;2023-02-02T02:05:13;149.93;;;79.10;;
21639;SDS011;10981;45.462;10.974;2023-02-02T02:07:47;145.73;;;80.35;;
21639;SDS011;10981;45.462;10.974;2023-02-02T02:10:18;150.43;;;80.80;;
21639;SDS011;10981;45.462;10.974;2023-02-02T02:12:46;149.77;;;79.47;;
21639;SDS011;10981;45.462;10.974;2023-02-02T02:15:15;153.50;;;79.65;;
21639;SDS011;10981;45.462;10.974;2023-02-02T02:30:06;163.93;;;85.53;;
21639;SDS011;10981;45.462;10.974;2023-02-02T02:32:44;167.02;;;87.65;;
21639;SDS011;10981;45.462;10.974;2023-02-02T02:38:17;154.00;;;82.90;;
21639;SDS011;10981;45.462;10.974;2023-02-02T02:40:56;155.40;;;82.32;;
21639;SDS011;10981;45.462;10.974;2023-02-02T02:43:36;161.45;;;85.45;;
21639;SDS011;10981;45.462;10.974;2023-02-02T02:46:12;153.82;;;80.75;;
21639;SDS011;10981;45.462;10.974;2023-02-02T02:48:42;155.00;;;78.57;;
21639;SDS011;10981;45.462;10.974;2023-02-02T02:54:14;155.73;;;75.78;;
21639;SDS011;10981;45.462;10.974;2023-02-02T03:07:42;153.00;;;79.15;;
21639;SDS011;10981;45.462;10.974;2023-02-02T03:10:17;160.15;;;83.15;;
21639;SDS011;10981;45.462;10.974;2023-02-02T03:12:50;157.75;;;76.63;;
21639;SDS011;10981;45.462;10.974;2023-02-02T03:15:18;152.38;;;83.60;;
21639;SDS011;10981;45.462;10.974;2023-02-02T03:17:47;154.68;;;80.93;;
21639;SDS011;10981;45.462;10.974;2023-02-02T03:20:17;154.20;;;80.65;;
21639;SDS011;10981;45.462;10.974;2023-02-02T03:22:46;160.55;;;82.88;;
21639;SDS011;10981;45.462;10.974;2023-02-02T03:25:14;159.68;;;80.13;;
21639;SDS011;10981;45.462;10.974;2023-02-02T03:27:42;151.90;;;77.47;;
21639;SDS011;10981;45.462;10.974;2023-02-02T03:30:11;156.20;;;81.15;;
21639;SDS011;10981;45.462;10.974;2023-02-02T03:32:40;158.60;;;83.50;;
21639;SDS011;10981;45.462;10.974;2023-02-02T03:35:08;166.38;;;84.28;;
21639;SDS011;10981;45.462;10.974;2023-02-02T03:37:36;170.90;;;88.53;;
21639;SDS011;10981;45.462;10.974;2023-02-02T03:40:05;177.50;;;87.47;;
21639;SDS011;10981;45.462;10.974;2023-02-02T03:42:33;174.25;;;91.03;;
21639;SDS011;10981;45.462;10.974;2023-02-02T03:45:02;180.43;;;94.30;;
21639;SDS011;10981;45.462;10.974;2023-02-02T03:47:30;182.00;;;90.43;;
21639;SDS011;10981;45.462;10.974;2023-02-02T03:49:59;178.27;;;93.20;;
21639;SDS011;10981;45.462;10.974;2023-02-02T03:52:27;174.30;;;90.60;;
21639;SDS011;10981;45.462;10.974;2023-02-02T03:54:55;184.48;;;95.80;;
21639;SDS011;10981;45.462;10.974;2023-02-02T03:57:23;170.18;;;89.35;;
21639;SDS011;10981;45.462;10.974;2023-02-02T03:59:52;179.82;;;91.25;;
21639;SDS011;10981;45.462;10.974;2023-02-02T04:02:20;184.73;;;93.00;;
21639;SDS011;10981;45.462;10.974;2023-02-02T04:04:48;175.63;;;92.85;;
21639;SDS011;10981;45.462;10.974;2023-02-02T04:07:16;189.48;;;98.38;;
21639;SDS011;10981;45.462;10.974;2023-02-02T04:09:45;183.48;;;92.93;;
21639;SDS011;10981;45.462;10.974;2023-02-02T04:12:13;186.90;;;93.60;;
21639;SDS011;10981;45.462;10.974;2023-02-02T04:14:41;190.55;;;96.57;;
21639;SDS011;10981;45.462;10.974;2023-02-02T04:17:09;186.00;;;93.70;;
21639;SDS011;10981;45.462;10.974;2023-02-02T04:19:38;179.05;;;94.07;;
21639;SDS011;10981;45.462;10.974;2023-02-02T04:22:06;177.60;;;93.43;;
21639;SDS011;10981;45.462;10.974;2023-02-02T04:24:34;180.57;;;87.43;;
21639;SDS011;10981;45.462;10.974;2023-02-02T04:27:04;177.23;;;86.75;;
21639;SDS011;10981;45.462;10.974;2023-02-02T04:29:32;173.52;;;88.15;;
21639;SDS011;10981;45.462;10.974;2023-02-02T04:32:00;170.93;;;88.22;;
21639;SDS011;10981;45.462;10.974;2023-02-02T04:34:28;167.80;;;86.38;;
21639;SDS011;10981;45.462;10.974;2023-02-02T04:36:57;188.70;;;92.15;;
21639;SDS011;10981;45.462;10.974;2023-02-02T04:39:26;179.85;;;92.10;;
21639;SDS011;10981;45.462;10.974;2023-02-02T04:41:54;195.43;;;93.25;;
21639;SDS011;10981;45.462;10.974;2023-02-02T04:44:22;195.02;;;97.03;;
21639;SDS011;10981;45.462;10.974;2023-02-02T04:46:50;200.23;;;99.57;;
21639;SDS011;10981;45.462;10.974;2023-02-02T04:49:18;191.13;;;94.95;;
21639;SDS011;10981;45.462;10.974;2023-02-02T04:51:47;191.45;;;93.93;;
21639;SDS011;10981;45.462;10.974;2023-02-02T04:54:16;179.90;;;91.18;;
21639;SDS011;10981;45.462;10.974;2023-02-02T04:56:44;171.10;;;85.70;;
21639;SDS011;10981;45.462;10.974;2023-02-02T04:59:13;160.93;;;80.25;;
21639;SDS011;10981;45.462;10.974;2023-02-02T05:01:41;157.07;;;81.05;;
21639;SDS011;10981;45.462;10.974;2023-02-02T05:04:09;161.38;;;78.75;;
21639;SDS011;10981;45.462;10.974;2023-02-02T05:06:38;143.35;;;76.00;;
21639;SDS011;10981;45.462;10.974;2023-02-02T05:09:06;161.50;;;77.85;;
21639;SDS011;10981;45.462;10.974;2023-02-02T05:11:34;146.65;;;76.90;;
21639;SDS011;10981;45.462;10.974;2023-02-02T05:14:05;150.15;;;77.70;;
21639;SDS011;10981;45.462;10.974;2023-02-02T05:16:33;145.02;;;75.03;;
21639;SDS011;10981;45.462;10.974;2023-02-02T05:19:01;155.23;;;80.15;;
21639;SDS011;10981;45.462;10.974;2023-02-02T05:21:30;156.20;;;80.35;;
21639;SDS011;10981;45.462;10.974;2023-02-02T05:23:58;148.60;;;76.68;;
21639;SDS011;10981;45.462;10.974;2023-02-02T05:26:27;149.55;;;79.05;;
21639;SDS011;10981;45.462;10.974;2023-02-02T05:28:56;146.98;;;78.57;;
21639;SDS011;10981;45.462;10.974;2023-02-02T05:31:27;140.90;;;75.30;;
21639;SDS011;10981;45.462;10.974;2023-02-02T05:33:58;145.18;;;75.70;;
21639;SDS011;10981;45.462;10.974;2023-02-02T05:36:26;146.65;;;76.80;;
21639;SDS011;10981;45.462;10.974;2023-02-02T05:38:55;150.93;;;74.55;;
21639;SDS011;10981;45.462;10.974;2023-02-02T05:41:23;158.50;;;76.78;;
21639;SDS011;10981;45.462;10.974;2023-02-02T05:43:52;153.57;;;78.25;;
21639;SDS011;10981;45.462;10.974;2023-02-02T05:46:21;147.98;;;78.07;;
21639;SDS011;10981;45.462;10.974;2023-02-02T05:48:49;152.63;;;80.68;;
21639;SDS011;10981;45.462;10.974;2023-02-02T05:51:26;157.48;;;81.15;;
21639;SDS011;10981;45.462;10.974;2023-02-02T05:53:57;153.10;;;80.28;;
21639;SDS011;10981;45.462;10.974;2023-02-02T05:56:27;148.70;;;77.70;;
21639;SDS011;10981;45.462;10.974;2023-02-02T05:58:55;156.07;;;78.80;;
21639;SDS011;10981;45.462;10.974;2023-02-02T06:01:23;157.32;;;78.43;;
21639;SDS011;10981;45.462;10.974;2023-02-02T06:03:52;145.30;;;75.60;;
21639;SDS011;10981;45.462;10.974;2023-02-02T06:06:20;149.18;;;75.82;;
21639;SDS011;10981;45.462;10.974;2023-02-02T06:08:48;144.60;;;76.03;;
21639;SDS011;10981;45.462;10.974;2023-02-02T06:11:19;154.77;;;77.13;;
21639;SDS011;10981;45.462;10.974;2023-02-02T06:13:47;147.73;;;77.70;;
21639;SDS011;10981;45.462;10.974;2023-02-02T06:16:15;151.90;;;78.85;;
21639;SDS011;10981;45.462;10.974;2023-02-02T06:18:43;151.52;;;78.00;;
21639;SDS011;10981;45.462;10.974;2023-02-02T06:21:12;149.68;;;77.90;;
21639;SDS011;10981;45.462;10.974;2023-02-02T06:23:40;154.43;;;76.03;;
21639;SDS011;10981;45.462;10.974;2023-02-02T06:26:12;159.57;;;79.35;;
21639;SDS011;10981;45.462;10.974;2023-02-02T06:28:41;147.77;;;73.65;;
21639;SDS011;10981;45.462;10.974;2023-02-02T06:31:10;150.07;;;74.90;;
21639;SDS011;10981;45.462;10.974;2023-02-02T06:33:38;151.13;;;76.72;;
21639;SDS011;10981;45.462;10.974;2023-02-02T06:36:07;151.73;;;75.95;;
21639;SDS011;10981;45.462;10.974;2023-02-02T06:38:35;155.23;;;78.25;;
21639;SDS011;10981;45.462;10.974;2023-02-02T06:41:03;157.23;;;74.90;;
21639;SDS011;10981;45.462;10.974;2023-02-02T06:43:34;157.18;;;75.88;;
21639;SDS011;10981;45.462;10.974;2023-02-02T06:46:02;138.23;;;70.72;;
21639;SDS011;10981;45.462;10.974;2023-02-02T06:48:31;145.48;;;74.53;;
21639;SDS011;10981;45.462;10.974;2023-02-02T06:50:59;148.70;;;73.22;;
21639;SDS011;10981;45.462;10.974;2023-02-02T06:53:27;133.73;;;71.45;;
21639;SDS011;10981;45.462;10.974;2023-02-02T06:55:57;130.65;;;69.13;;
21639;SDS011;10981;45.462;10.974;2023-02-02T06:58:27;138.05;;;72.13;;
21639;SDS011;10981;45.462;10.974;2023-02-02T07:01:09;134.43;;;70.70;;
21639;SDS011;10981;45.462;10.974;2023-02-02T07:03:39;133.57;;;72.60;;
21639;SDS011;10981;45.462;10.974;2023-02-02T07:06:18;152.88;;;73.95;;
21639;SDS011;10981;45.462;10.974;2023-02-02T07:08:49;145.95;;;76.05;;
21639;SDS011;10981;45.462;10.974;2023-02-02T07:11:29;147.13;;;77.85;;
21639;SDS011;10981;45.462;10.974;2023-02-02T07:14:03;156.38;;;75.05;;
21639;SDS011;10981;45.462;10.974;2023-02-02T07:16:31;153.77;;;76.60;;
21639;SDS011;10981;45.462;10.974;2023-02-02T07:18:59;152.52;;;74.95;;
21639;SDS011;10981;45.462;10.974;2023-02-02T07:21:28;147.93;;;76.53;;
21639;SDS011;10981;45.462;10.974;2023-02-02T07:24:02;152.90;;;79.78;;
21639;SDS011;10981;45.462;10.974;2023-02-02T07:26:32;151.32;;;76.47;;
21639;SDS011;10981;45.462;10.974;2023-02-02T07:29:02;154.00;;;78.35;;
21639;SDS011;10981;45.462;10.974;2023-02-02T07:31:31;153.68;;;75.35;;
21639;SDS011;10981;45.462;10.974;2023-02-02T07:34:02;149.10;;;75.00;;
21639;SDS011;10981;45.462;10.974;2023-02-02T07:36:31;165.50;;;83.22;;
21639;SDS011;10981;45.462;10.974;2023-02-02T07:38:59;151.98;;;81.70;;
21639;SDS011;10981;45.462;10.974;2023-02-02T07:41:32;145.07;;;72.50;;
21639;SDS011;10981;45.462;10.974;2023-02-02T07:44:02;138.90;;;70.20;;
21639;SDS011;10981;45.462;10.974;2023-02-02T07:46:31;135.82;;;66.93;;
21639;SDS011;10981;45.462;10.974;2023-02-02T07:49:01;126.00;;;61.47;;
21639;SDS011;10981;45.462;10.974;2023-02-02T07:51:29;102.65;;;54.88;;
21639;SDS011;10981;45.462;10.974;2023-02-02T07:53:57;116.47;;;57.45;;
21639;SDS011;10981;45.462;10.974;2023-02-02T07:56:26;102.97;;;51.75;;
21639;SDS011;10981;45.462;10.974;2023-02-02T07:58:54;97.78;;;52.08;;
21639;SDS011;10981;45.462;10.974;2023-02-02T08:01:24;88.32;;;46.13;;
21639;SDS011;10981;45.462;10.974;2023-02-02T08:03:53;95.45;;;47.13;;
21639;SDS011;10981;45.462;10.974;2023-02-02T08:06:26;95.65;;;47.28;;
21639;SDS011;10981;45.462;10.974;2023-02-02T08:11:27;109.35;;;52.60;;
21639;SDS011;10981;45.462;10.974;2023-02-02T08:13:57;114.95;;;59.30;;
21639;SDS011;10981;45.462;10.974;2023-02-02T08:16:28;123.32;;;59.05;;
21639;SDS011;10981;45.462;10.974;2023-02-02T08:18:57;113.45;;;57.78;;
21639;SDS011;10981;45.462;10.974;2023-02-02T08:21:26;118.88;;;58.90;;
21639;SDS011;10981;45.462;10.974;2023-02-02T08:23:54;127.07;;;62.50;;
21639;SDS011;10981;45.462;10.974;2023-02-02T08:26:24;117.60;;;58.58;;
21639;SDS011;10981;45.462;10.974;2023-02-02T08:28:55;119.07;;;59.42;;
21639;SDS011;10981;45.462;10.974;2023-02-02T08:31:27;114.22;;;58.92;;
21639;SDS011;10981;45.462;10.974;2023-02-02T08:33:57;132.45;;;62.97;;
21639;SDS011;10981;45.462;10.974;2023-02-02T08:36:27;126.13;;;62.75;;
21639;SDS011;10981;45.462;10.974;2023-02-02T08:38:59;136.43;;;63.78;;
21639;SDS011;10981;45.462;10.974;2023-02-02T08:41:37;129.05;;;63.08;;
21639;SDS011;10981;45.462;10.974;2023-02-02T08:44:09;129.18;;;63.38;;
21639;SDS011;10981;45.462;10.974;2023-02-02T08:46:40;142.87;;;66.43;;
21639;SDS011;10981;45.462;10.974;2023-02-02T08:49:09;130.45;;;67.32;;
21639;SDS011;10981;45.462;10.974;2023-02-02T08:51:39;135.90;;;66.47;;
21639;SDS011;10981;45.462;10.974;2023-02-02T08:54:08;125.63;;;62.65;;
21639;SDS011;10981;45.462;10.974;2023-02-02T08:56:38;122.10;;;60.55;;
21639;SDS011;10981;45.462;10.974;2023-02-02T08:59:08;127.75;;;62.65;;
21639;SDS011;10981;45.462;10.974;2023-02-02T09:01:37;117.55;;;60.65;;
21639;SDS011;10981;45.462;10.974;2023-02-02T09:04:06;123.70;;;57.72;;
21639;SDS011;10981;45.462;10.974;2023-02-02T09:06:39;117.47;;;56.35;;
21639;SDS011;10981;45.462;10.974;2023-02-02T09:09:09;104.43;;;52.92;;
21639;SDS011;10981;45.462;10.974;2023-02-02T09:11:40;106.20;;;51.55;;
21639;SDS011;10981;45.462;10.974;2023-02-02T09:14:09;114.97;;;53.70;;
21639;SDS011;10981;45.462;10.974;2023-02-02T09:16:39;105.82;;;50.85;;
21639;SDS011;10981;45.462;10.974;2023-02-02T09:19:09;90.22;;;43.30;;
21639;SDS011;10981;45.462;10.974;2023-02-02T09:21:37;90.55;;;46.60;;
21639;SDS011;10981;45.462;10.974;2023-02-02T09:24:07;90.68;;;44.08;;
21639;SDS011;10981;45.462;10.974;2023-02-02T09:26:55;96.82;;;49.00;;
21639;SDS011;10981;45.462;10.974;2023-02-02T09:29:24;98.45;;;49.45;;
21639;SDS011;10981;45.462;10.974;2023-02-02T09:31:52;101.22;;;49.13;;
21639;SDS011;10981;45.462;10.974;2023-02-02T09:34:20;99.40;;;51.35;;
21639;SDS011;10981;45.462;10.974;2023-02-02T09:36:49;100.07;;;48.47;;
21639;SDS011;10981;45.462;10.974;2023-02-02T09:39:17;93.47;;;46.92;;
21639;SDS011;10981;45.462;10.974;2023-02-02T09:50:14;77.72;;;38.47;;
21639;SDS011;10981;45.462;10.974;2023-02-02T09:53:04;68.95;;;35.67;;
21639;SDS011;10981;45.462;10.974;2023-02-02T09:55:56;61.63;;;33.10;;
21639;SDS011;10981;45.462;10.974;2023-02-02T10:06:32;57.05;;;28.27;;
21639;SDS011;10981;45.462;10.974;2023-02-02T10:12:02;61.92;;;28.58;;
21639;SDS011;10981;45.462;10.974;2023-02-02T10:14:53;59.22;;;29.90;;
21639;SDS011;10981;45.462;10.974;2023-02-02T10:17:48;68.72;;;30.80;;
21639;SDS011;10981;45.462;10.974;2023-02-02T10:32:05;59.55;;;30.88;;
21639;SDS011;10981;45.462;10.974;2023-02-02T10:34:10;62.97;;;30.27;;
21639;SDS011;10981;45.462;10.974;2023-02-02T10:45:46;56.95;;;26.30;;
21639;SDS011;10981;45.462;10.974;2023-02-02T10:48:21;56.95;;;29.75;;
21639;SDS011;10981;45.462;10.974;2023-02-02T10:50:55;53.85;;;27.27;;
21639;SDS011;10981;45.462;10.974;2023-02-02T10:53:27;53.30;;;27.98;;
21639;SDS011;10981;45.462;10.974;2023-02-02T10:56:06;45.65;;;24.52;;
21639;SDS011;10981;45.462;10.974;2023-02-02T10:58:39;46.83;;;22.35;;
21639;SDS011;10981;45.462;10.974;2023-02-02T11:01:14;54.15;;;27.42;;
21639;SDS011;10981;45.462;10.974;2023-02-02T11:03:44;51.65;;;25.63;;
21639;SDS011;10981;45.462;10.974;2023-02-02T11:06:12;63.15;;;28.92;;
21639;SDS011;10981;45.462;10.974;2023-02-02T11:09:00;60.60;;;31.35;;
21639;SDS011;10981;45.462;10.974;2023-02-02T11:11:37;68.03;;;33.25;;
21639;SDS011;10981;45.462;10.974;2023-02-02T11:16:43;83.30;;;38.30;;
21639;SDS011;10981;45.462;10.974;2023-02-02T11:21:56;80.20;;;38.17;;
21639;SDS011;10981;45.462;10.974;2023-02-02T11:26:56;71.90;;;35.65;;
21639;SDS011;10981;45.462;10.974;2023-02-02T11:37:34;74.70;;;35.30;;
21639;SDS011;10981;45.462;10.974;2023-02-02T11:40:28;71.57;;;36.92;;
21639;SDS011;10981;45.462;10.974;2023-02-02T11:43:22;71.97;;;37.13;;
21639;SDS011;10981;45.462;10.974;2023-02-02T11:46:02;67.18;;;34.08;;
21639;SDS011;10981;45.462;10.974;2023-02-02T11:48:33;67.10;;;34.55;;
21639;SDS011;10981;45.462;10.974;2023-02-02T11:51:04;67.60;;;32.15;;
21639;SDS011;10981;45.462;10.974;2023-02-02T11:53:47;61.67;;;29.67;;
21639;SDS011;10981;45.462;10.974;2023-02-02T11:56:26;60.85;;;32.45;;
21639;SDS011;10981;45.462;10.974;2023-02-02T11:58:55;62.08;;;33.10;;
21639;SDS011;10981;45.462;10.974;2023-02-02T12:04:00;43.63;;;24.02;;
21639;SDS011;10981;45.462;10.974;2023-02-02T12:06:47;39.75;;;22.17;;
21639;SDS011;10981;45.462;10.974;2023-02-02T12:09:16;39.88;;;19.88;;
21639;SDS011;10981;45.462;10.974;2023-02-02T12:12:08;34.95;;;19.45;;
21639;SDS011;10981;45.462;10.974;2023-02-02T12:33:38;7.35;;;4.00;;
21639;SDS011;10981;45.462;10.974;2023-02-02T12:36:22;3.88;;;2.63;;
21639;SDS011;10981;45.462;10.974;2023-02-02T12:48:09;4.50;;;2.60;;
21639;SDS011;10981;45.462;10.974;2023-02-02T12:57:17;7.95;;;5.93;;
21639;SDS011;10981;45.462;10.974;2023-02-02T13:08:33;12.50;;;6.72;;
21639;SDS011;10981;45.462;10.974;2023-02-02T13:17:00;15.60;;;7.88;;
21639;SDS011;10981;45.462;10.974;2023-02-02T13:19:56;12.63;;;7.18;;
21639;SDS011;10981;45.462;10.974;2023-02-02T13:22:33;16.33;;;7.75;;
21639;SDS011;10981;45.462;10.974;2023-02-02T13:25:13;11.68;;;6.43;;
21639;SDS011;10981;45.462;10.974;2023-02-02T13:27:46;22.13;;;7.00;;
21639;SDS011;10981;45.462;10.974;2023-02-02T13:30:26;16.17;;;7.13;;
21639;SDS011;10981;45.462;10.974;2023-02-02T13:32:59;16.35;;;8.13;;
21639;SDS011;10981;45.462;10.974;2023-02-02T13:35:38;16.77;;;8.02;;
21639;SDS011;10981;45.462;10.974;2023-02-02T13:40:53;13.63;;;8.00;;
21639;SDS011;10981;45.462;10.974;2023-02-02T13:43:36;14.18;;;8.38;;
21639;SDS011;10981;45.462;10.974;2023-02-02T13:46:24;13.18;;;7.80;;
21639;SDS011;10981;45.462;10.974;2023-02-02T13:49:04;19.83;;;8.88;;
21639;SDS011;10981;45.462;10.974;2023-02-02T14:02:52;13.18;;;6.68;;
21639;SDS011;10981;45.462;10.974;2023-02-02T14:05:27;12.82;;;7.82;;
21639;SDS011;10981;45.462;10.974;2023-02-02T14:13:28;18.73;;;9.18;;
21639;SDS011;10981;45.462;10.974;2023-02-02T14:16:21;19.38;;;9.13;;
21639;SDS011;10981;45.462;10.974;2023-02-02T14:18:59;15.00;;;8.52;;
21639;SDS011;10981;45.462;10.974;2023-02-02T14:29:35;18.90;;;9.20;;
21639;SDS011;10981;45.462;10.974;2023-02-02T14:37:33;27.40;;;14.57;;
21639;SDS011;10981;45.462;10.974;2023-02-02T14:40:22;25.25;;;14.93;;
21639;SDS011;10981;45.462;10.974;2023-02-02T14:43:15;29.23;;;16.42;;
21639;SDS011;10981;45.462;10.974;2023-02-02T14:48:43;30.48;;;16.63;;
21639;SDS011;10981;45.462;10.974;2023-02-02T14:51:26;30.38;;;17.05;;
21639;SDS011;10981;45.462;10.974;2023-02-02T14:54:06;24.52;;;14.90;;
21639;SDS011;10981;45.462;10.974;2023-02-02T14:56:45;26.80;;;16.73;;
21639;SDS011;10981;45.462;10.974;2023-02-02T14:59:26;29.35;;;16.88;;
21639;SDS011;10981;45.462;10.974;2023-02-02T15:01:59;26.75;;;17.65;;
21639;SDS011;10981;45.462;10.974;2023-02-02T15:04:36;28.92;;;17.00;;
21639;SDS011;10981;45.462;10.974;2023-02-02T15:09:52;28.17;;;16.98;;
21639;SDS011;10981;45.462;10.974;2023-02-02T15:12:26;31.60;;;18.05;;
21639;SDS011;10981;45.462;10.974;2023-02-02T15:15:12;26.52;;;17.67;;
21639;SDS011;10981;45.462;10.974;2023-02-02T15:17:52;31.20;;;18.35;;
21639;SDS011;10981;45.462;10.974;2023-02-02T15:30:48;40.15;;;16.52;;
21639;SDS011;10981;45.462;10.974;2023-02-02T15:33:27;39.00;;;18.77;;
21639;SDS011;10981;45.462;10.974;2023-02-02T15:36:09;32.13;;;17.15;;
21639;SDS011;10981;45.462;10.974;2023-02-02T15:38:39;35.80;;;17.90;;
21639;SDS011;10981;45.462;10.974;2023-02-02T15:43:46;31.10;;;17.38;;
21639;SDS011;10981;45.462;10.974;2023-02-02T15:46:15;32.42;;;16.60;;
21639;SDS011;10981;45.462;10.974;2023-02-02T15:52:03;24.38;;;16.27;;
21639;SDS011;10981;45.462;10.974;2023-02-02T15:54:51;24.30;;;16.13;;
21639;SDS011;10981;45.462;10.974;2023-02-02T15:59:59;35.63;;;16.80;;
21639;SDS011;10981;45.462;10.974;2023-02-02T16:02:50;40.78;;;17.92;;
21639;SDS011;10981;45.462;10.974;2023-02-02T16:08:04;31.55;;;16.67;;
21639;SDS011;10981;45.462;10.974;2023-02-02T16:10:34;32.83;;;15.50;;
21639;SDS011;10981;45.462;10.974;2023-02-02T16:13:02;36.35;;;17.48;;
21639;SDS011;10981;45.462;10.974;2023-02-02T16:15:31;38.88;;;19.52;;
21639;SDS011;10981;45.462;10.974;2023-02-02T16:18:00;38.60;;;18.67;;
21639;SDS011;10981;45.462;10.974;2023-02-02T16:20:34;40.70;;;17.55;;
21639;SDS011;10981;45.462;10.974;2023-02-02T16:23:04;33.50;;;17.08;;
21639;SDS011;10981;45.462;10.974;2023-02-02T16:25:50;31.38;;;15.07;;
21639;SDS011;10981;45.462;10.974;2023-02-02T16:28:20;26.17;;;13.45;;
21639;SDS011;10981;45.462;10.974;2023-02-02T16:30:49;34.40;;;14.85;;
21639;SDS011;10981;45.462;10.974;2023-02-02T16:33:31;32.20;;;14.15;;
21639;SDS011;10981;45.462;10.974;2023-02-02T16:36:19;29.95;;;13.30;;
21639;SDS011;10981;45.462;10.974;2023-02-02T16:38:52;28.92;;;12.48;;
21639;SDS011;10981;45.462;10.974;2023-02-02T16:41:29;25.30;;;12.25;;
21639;SDS011;10981;45.462;10.974;2023-02-02T16:46:54;26.50;;;12.07;;
21639;SDS011;10981;45.462;10.974;2023-02-02T16:49:23;25.17;;;11.93;;
21639;SDS011;10981;45.462;10.974;2023-02-02T16:54:51;24.42;;;10.88;;
21639;SDS011;10981;45.462;10.974;2023-02-02T16:57:24;24.80;;;10.45;;
21639;SDS011;10981;45.462;10.974;2023-02-02T16:59:58;21.10;;;11.35;;
21639;SDS011;10981;45.462;10.974;2023-02-02T17:02:39;18.10;;;9.75;;
21639;SDS011;10981;45.462;10.974;2023-02-02T17:05:16;31.85;;;10.82;;
21639;SDS011;10981;45.462;10.974;2023-02-02T17:07:56;22.73;;;10.05;;
21639;SDS011;10981;45.462;10.974;2023-02-02T17:10:32;25.05;;;10.65;;
21639;SDS011;10981;45.462;10.974;2023-02-02T17:13:33;25.17;;;10.30;;
21639;SDS011;10981;45.462;10.974;2023-02-02T17:15:58;21.17;;;9.70;;
21639;SDS011;10981;45.462;10.974;2023-02-02T17:18:26;21.98;;;11.73;;
21639;SDS011;10981;45.462;10.974;2023-02-02T17:20:55;24.80;;;11.13;;
21639;SDS011;10981;45.462;10.974;2023-02-02T17:23:30;18.67;;;10.63;;
21639;SDS011;10981;45.462;10.974;2023-02-02T17:26:02;22.45;;;10.90;;
21639;SDS011;10981;45.462;10.974;2023-02-02T17:28:32;19.30;;;11.23;;
21639;SDS011;10981;45.462;10.974;2023-02-02T17:31:02;22.73;;;10.88;;
21639;SDS011;10981;45.462;10.974;2023-02-02T17:33:34;23.20;;;11.15;;
21639;SDS011;10981;45.462;10.974;2023-02-02T17:36:03;25.58;;;10.90;;
21639;SDS011;10981;45.462;10.974;2023-02-02T17:38:32;25.48;;;10.02;;
21639;SDS011;10981;45.462;10.974;2023-02-02T17:41:01;21.73;;;10.18;;
21639;SDS011;10981;45.462;10.974;2023-02-02T17:43:30;20.55;;;9.98;;
21639;SDS011;10981;45.462;10.974;2023-02-02T17:46:01;27.98;;;11.20;;
21639;SDS011;10981;45.462;10.974;2023-02-02T17:48:29;20.45;;;10.82;;
21639;SDS011;10981;45.462;10.974;2023-02-02T17:50:58;20.15;;;10.60;;
21639;SDS011;10981;45.462;10.974;2023-02-02T17:53:29;17.67;;;9.43;;
21639;SDS011;10981;45.462;10.974;2023-02-02T17:55:59;18.48;;;10.10;;
21639;SDS011;10981;45.462;10.974;2023-02-02T17:58:27;24.02;;;10.30;;
21639;SDS011;10981;45.462;10.974;2023-02-02T18:00:55;23.60;;;10.82;;